Terminal Aerodrome Forecast
Issued by NWS

Home | Current Version | Previous Version | Text Only | Print | Product List | Glossary On
Versions: 1 2 3 4 5 6 7 8 9 10 11 12 13 14 15 16 17 18 19 20 21 22 23 24 25 26 27 28 29 30 31 32 33 34 35 36 37 38 39 40 41 42 43 44 45
000
FTUS43 KMKX 011451 AAA
TAFUES
TAF AMD
KUES 011451Z 0115/0212 14006KT P6SM BKN025
     FM011600 14009KT P6SM SCT030 SCT070
     FM020100 13006KT P6SM SCT050 BKN080
     FM020600 15005KT 5SM -SHRA VCTS BKN045CB OVC070
     FM021000 14003KT 3SM BR VCSH OVC015=

USA.gov is the U.S. government's official web portal to all federal, state and local government web resources and services.